Time;durP1;ratioP1;P1;durP2;ratioP2;P2;SDS_P1;SDS_P2;PMS_P1;PMS_P2;Temp;Humidity;BMP_temperature;BMP_pressure;BME280_temperature;BME280_humidity;BME280_pressure;Samples;Min_cycle;Max_cycle;Signal;HPM_P1;HPM_P2
2023/07/17 00:02:04;;;;;;;3.90;3.65;;;;;;;;;;4975528;28;20438;-57
2023/07/17 00:04:36;;;;;;;4.22;4.03;;;;;;;;;;4975814;28;20030;-56
2023/07/17 00:07:02;;;;;;;4.50;4.10;;;;;;;;;;4975585;28;20034;-57
2023/07/17 00:09:27;;;;;;;4.80;4.28;;;;;;;;;;4958096;28;20033;-57
2023/07/17 00:11:53;;;;;;;4.88;4.13;;;;;;;;;;4975233;28;20525;-56
2023/07/17 00:14:18;;;;;;;4.22;3.88;;;;;;;;;;4958179;28;20031;-56
2023/07/17 00:16:43;;;;;;;4.72;4.32;;;;;;;;;;4975392;28;20029;-56
2023/07/17 00:19:09;;;;;;;6.43;5.20;;;;;;;;;;4957729;28;20053;-56
2023/07/17 00:21:34;;;;;;;5.88;5.35;;;;;;;;;;4975532;28;20069;-57
2023/07/17 00:24:00;;;;;;;5.43;5.03;;;;;;;;;;4975245;28;20366;-57
2023/07/17 00:26:25;;;;;;;7.65;5.47;;;;;;;;;;4975263;28;20050;-57
2023/07/17 00:28:54;;;;;;;5.45;4.95;;;;;;;;;;4958075;28;20030;-56
2023/07/17 00:31:20;;;;;;;5.30;4.90;;;;;;;;;;4975160;28;20039;-56
2023/07/17 00:33:45;;;;;;;4.93;4.63;;;;;;;;;;4957943;28;20034;-56
2023/07/17 00:36:10;;;;;;;5.05;4.35;;;;;;;;;;4957795;28;20023;-56
2023/07/17 00:38:36;;;;;;;5.05;4.65;;;;;;;;;;4958184;28;20502;-56
2023/07/17 00:41:01;;;;;;;4.85;4.43;;;;;;;;;;4975327;28;20039;-56
2023/07/17 00:43:27;;;;;;;5.07;4.65;;;;;;;;;;4957453;28;20033;-56
2023/07/17 00:45:52;;;;;;;8.55;5.25;;;;;;;;;;4957361;28;20062;-56
2023/07/17 00:48:17;;;;;;;8.20;5.82;;;;;;;;;;4974688;28;20032;-56
2023/07/17 00:50:43;;;;;;;8.73;6.97;;;;;;;;;;4974725;28;20378;-56
2023/07/17 00:53:08;;;;;;;10.27;6.38;;;;;;;;;;4975002;28;20055;-56
2023/07/17 00:55:34;;;;;;;8.20;5.18;;;;;;;;;;4957618;28;20082;-56
2023/07/17 00:57:59;;;;;;;5.63;5.10;;;;;;;;;;4957754;28;20038;-56
2023/07/17 01:00:27;;;;;;;6.88;5.57;;;;;;;;;;4957923;28;20046;-56
2023/07/17 01:02:53;;;;;;;7.57;6.78;;;;;;;;;;4957322;28;20027;-56
2023/07/17 01:05:18;;;;;;;8.95;6.82;;;;;;;;;;4957558;28;20089;-56
2023/07/17 01:07:44;;;;;;;6.43;5.90;;;;;;;;;;4975018;28;20102;-56
2023/07/17 01:10:09;;;;;;;5.90;5.40;;;;;;;;;;4975164;28;20451;-56
2023/07/17 01:12:35;;;;;;;4.72;4.43;;;;;;;;;;4974778;28;20023;-56
2023/07/17 01:15:01;;;;;;;4.90;4.50;;;;;;;;;;4957186;28;20031;-57
2023/07/17 01:17:26;;;;;;;4.53;4.13;;;;;;;;;;4956944;28;20043;-56
2023/07/17 01:19:52;;;;;;;4.35;3.92;;;;;;;;;;4974715;28;20030;-56
2023/07/17 01:22:21;;;;;;;4.30;4.00;;;;;;;;;;4975023;28;20027;-56
2023/07/17 01:24:46;;;;;;;3.80;3.60;;;;;;;;;;4974517;28;20027;-57
2023/07/17 01:27:12;;;;;;;4.68;4.38;;;;;;;;;;4957333;28;20033;-57
2023/07/17 01:29:37;;;;;;;4.53;4.18;;;;;;;;;;4957208;28;20094;-57
2023/07/17 01:32:03;;;;;;;4.10;3.90;;;;;;;;;;4957413;28;20037;-56
2023/07/17 01:34:29;;;;;;;4.40;4.05;;;;;;;;;;4957257;28;20027;-56
2023/07/17 01:36:55;;;;;;;4.15;3.92;;;;;;;;;;4957536;28;20034;-56
2023/07/17 01:39:20;;;;;;;4.05;3.72;;;;;;;;;;4956907;28;20066;-56
2023/07/17 01:41:46;;;;;;;3.85;3.60;;;;;;;;;;4974479;28;20031;-56
2023/07/17 01:44:11;;;;;;;4.30;3.92;;;;;;;;;;4974535;28;20027;-56
2023/07/17 01:46:37;;;;;;;3.67;3.45;;;;;;;;;;4959101;28;20394;-56
2023/07/17 01:49:03;;;;;;;3.88;3.58;;;;;;;;;;4960922;28;20477;-56
2023/07/17 01:51:28;;;;;;;3.67;3.40;;;;;;;;;;4978122;28;20458;-56
2023/07/17 01:53:53;;;;;;;3.20;3.05;;;;;;;;;;4978073;28;20023;-56
2023/07/17 01:56:19;;;;;;;3.80;3.60;;;;;;;;;;4977957;28;20031;-56
2023/07/17 01:58:44;;;;;;;3.97;3.67;;;;;;;;;;4960755;28;20402;-56
2023/07/17 02:01:10;;;;;;;3.80;3.38;;;;;;;;;;4960539;28;20030;-56
2023/07/17 02:03:36;;;;;;;3.78;3.58;;;;;;;;;;4944522;28;20037;-56
2023/07/17 02:06:01;;;;;;;4.00;3.63;;;;;;;;;;4960377;28;20034;-56
2023/07/17 02:08:27;;;;;;;4.38;4.07;;;;;;;;;;4977684;28;20086;-56
2023/07/17 02:10:54;;;;;;;4.03;3.67;;;;;;;;;;4977827;28;20027;-56
2023/07/17 02:13:19;;;;;;;3.72;3.53;;;;;;;;;;4977464;28;20041;-56
2023/07/17 02:15:45;;;;;;;4.22;3.92;;;;;;;;;;4944583;28;20062;-56
2023/07/17 02:18:11;;;;;;;3.42;3.22;;;;;;;;;;4977693;28;20359;-56
2023/07/17 02:20:37;;;;;;;3.30;3.10;;;;;;;;;;4977578;28;20027;-56
2023/07/17 02:23:02;;;;;;;4.00;3.55;;;;;;;;;;4977696;28;20033;-56
2023/07/17 02:25:28;;;;;;;3.55;3.35;;;;;;;;;;4970571;28;20061;-56
2023/07/17 02:27:54;;;;;;;4.00;3.55;;;;;;;;;;4995815;28;20176;-56
2023/07/17 02:30:20;;;;;;;4.13;3.83;;;;;;;;;;4996395;28;20034;-56
2023/07/17 02:32:45;;;;;;;3.65;3.45;;;;;;;;;;4996525;28;20481;-56
2023/07/17 02:35:10;;;;;;;4.38;3.53;;;;;;;;;;4995050;28;20022;-56
2023/07/17 02:37:36;;;;;;;4.05;3.63;;;;;;;;;;4996803;28;20041;-56
2023/07/17 02:40:11;;;;;;;4.05;3.83;;;;;;;;;;4995888;28;20470;-56
2023/07/17 02:42:37;;;;;;;4.10;3.70;;;;;;;;;;4996135;28;20034;-56
2023/07/17 02:45:04;;;;;;;3.85;3.63;;;;;;;;;;4995007;28;20413;-56
2023/07/17 02:47:29;;;;;;;3.70;3.40;;;;;;;;;;4994776;28;20046;-56
2023/07/17 02:49:55;;;;;;;7.38;3.75;;;;;;;;;;4996365;28;20026;-56
2023/07/17 02:52:20;;;;;;;3.90;3.65;;;;;;;;;;4996187;28;20029;-56
2023/07/17 02:54:49;;;;;;;3.78;3.47;;;;;;;;;;4994906;28;20434;-56
2023/07/17 02:57:16;;;;;;;3.80;3.50;;;;;;;;;;4993702;28;20022;-56
2023/07/17 02:59:42;;;;;;;4.10;3.55;;;;;;;;;;4995105;28;20045;-56
2023/07/17 03:02:08;;;;;;;3.67;3.47;;;;;;;;;;4996375;28;20065;-56
2023/07/17 03:04:33;;;;;;;4.63;3.78;;;;;;;;;;4994673;28;20027;-56
2023/07/17 03:06:58;;;;;;;5.82;4.30;;;;;;;;;;4994675;28;20366;-56
2023/07/17 03:09:25;;;;;;;4.57;4.18;;;;;;;;;;4996095;28;20105;-56
2023/07/17 03:11:51;;;;;;;4.50;4.18;;;;;;;;;;4995842;28;20034;-56
2023/07/17 03:14:19;;;;;;;3.75;3.55;;;;;;;;;;4995695;28;20034;-64
2023/07/17 03:16:44;;;;;;;4.03;3.83;;;;;;;;;;4994289;28;20021;-64
2023/07/17 03:19:12;;;;;;;4.90;4.40;;;;;;;;;;4994856;28;20393;-64
2023/07/17 03:21:37;;;;;;;4.82;4.28;;;;;;;;;;4993900;28;20030;-63
2023/07/17 03:24:04;;;;;;;4.75;4.45;;;;;;;;;;4995675;28;20109;-63
2023/07/17 03:26:29;;;;;;;4.45;4.05;;;;;;;;;;4979988;28;20050;-63
2023/07/17 03:28:55;;;;;;;4.18;3.97;;;;;;;;;;4975403;28;20481;-63
2023/07/17 03:31:20;;;;;;;4.00;3.80;;;;;;;;;;4958048;28;20474;-63
2023/07/17 03:33:46;;;;;;;3.47;3.28;;;;;;;;;;4942743;28;20062;-63
2023/07/17 03:36:11;;;;;;;3.95;3.60;;;;;;;;;;4959346;28;20045;-63
2023/07/17 03:38:37;;;;;;;5.03;3.90;;;;;;;;;;4958952;28;20081;-63
2023/07/17 03:41:03;;;;;;;4.05;3.58;;;;;;;;;;4958478;28;20117;-64
2023/07/17 03:43:28;;;;;;;4.07;3.83;;;;;;;;;;4958172;28;20126;-64
2023/07/17 03:45:55;;;;;;;3.65;3.40;;;;;;;;;;4958367;28;20085;-64
2023/07/17 03:48:21;;;;;;;3.75;3.45;;;;;;;;;;4958756;28;20035;-64
2023/07/17 03:50:48;;;;;;;3.17;2.97;;;;;;;;;;4958358;28;20022;-64
2023/07/17 03:53:13;;;;;;;3.47;3.05;;;;;;;;;;4957912;28;20031;-64
2023/07/17 03:55:38;;;;;;;3.58;3.28;;;;;;;;;;4958427;28;20026;-64
2023/07/17 03:58:06;;;;;;;3.55;3.38;;;;;;;;;;4958520;28;20023;-64
2023/07/17 04:00:31;;;;;;;3.83;3.53;;;;;;;;;;4957984;28;20067;-64
2023/07/17 04:02:56;;;;;;;3.55;3.35;;;;;;;;;;4975727;28;20085;-64
2023/07/17 04:05:43;;;;;;;4.00;3.75;;;;;;;;;;4975359;28;20039;-64
2023/07/17 04:08:08;;;;;;;4.18;3.53;;;;;;;;;;4957896;28;20045;-56
2023/07/17 04:10:34;;;;;;;4.22;3.90;;;;;;;;;;4957847;28;20031;-56
2023/07/17 04:13:01;;;;;;;4.97;4.10;;;;;;;;;;4958212;28;20018;-56
2023/07/17 04:15:29;;;;;;;4.40;4.10;;;;;;;;;;4957627;28;20100;-57
2023/07/17 04:17:54;;;;;;;3.90;3.70;;;;;;;;;;4957872;28;20054;-58
2023/07/17 04:20:20;;;;;;;4.13;3.83;;;;;;;;;;4958149;28;20078;-59
2023/07/17 04:22:45;;;;;;;4.22;4.03;;;;;;;;;;4957469;28;20034;-59
2023/07/17 04:25:11;;;;;;;4.80;4.43;;;;;;;;;;4975153;28;20066;-59
2023/07/17 04:27:38;;;;;;;4.30;4.00;;;;;;;;;;4957537;28;20493;-59
2023/07/17 04:30:04;;;;;;;3.63;3.42;;;;;;;;;;4957764;28;20026;-59
2023/07/17 04:32:31;;;;;;;3.97;3.78;;;;;;;;;;4958315;28;20061;-58
2023/07/17 04:34:59;;;;;;;4.00;3.70;;;;;;;;;;4957765;28;20058;-58
2023/07/17 04:37:25;;;;;;;3.60;3.30;;;;;;;;;;4957891;28;20030;-58
2023/07/17 04:39:51;;;;;;;3.45;3.15;;;;;;;;;;4974802;28;20026;-59
2023/07/17 04:42:16;;;;;;;3.60;3.30;;;;;;;;;;4957509;28;20047;-59
2023/07/17 04:44:45;;;;;;;3.47;3.17;;;;;;;;;;4957876;28;20048;-58
2023/07/17 04:47:12;;;;;;;2.90;2.70;;;;;;;;;;4957719;28;20077;-59
2023/07/17 04:49:37;;;;;;;3.05;2.75;;;;;;;;;;4974902;28;20027;-59
2023/07/17 04:52:03;;;;;;;2.90;2.72;;;;;;;;;;4957147;28;20018;-56
2023/07/17 04:54:28;;;;;;;3.00;2.80;;;;;;;;;;4957107;28;20027;-64
2023/07/17 04:56:54;;;;;;;3.17;2.88;;;;;;;;;;4957344;28;20059;-62
2023/07/17 04:59:21;;;;;;;4.85;4.15;;;;;;;;;;4957517;28;20066;-56
2023/07/17 05:01:47;;;;;;;4.82;4.45;;;;;;;;;;4956662;28;20031;-56
2023/07/17 05:04:12;;;;;;;5.43;4.60;;;;;;;;;;4973235;28;20033;-56
2023/07/17 05:06:38;;;;;;;5.35;4.57;;;;;;;;;;4974577;28;20035;-56
2023/07/17 05:09:04;;;;;;;8.48;4.55;;;;;;;;;;4957184;28;20077;-56
2023/07/17 05:11:30;;;;;;;3.78;3.47;;;;;;;;;;4957949;28;20042;-56
2023/07/17 05:13:56;;;;;;;3.80;3.53;;;;;;;;;;4956545;28;20023;-56
2023/07/17 05:16:22;;;;;;;3.78;3.47;;;;;;;;;;4972767;28;20101;-56
2023/07/17 05:18:47;;;;;;;3.72;3.40;;;;;;;;;;4973436;28;20066;-56
2023/07/17 05:21:12;;;;;;;3.88;3.67;;;;;;;;;;4959598;28;20177;-56
2023/07/17 05:23:39;;;;;;;4.55;4.15;;;;;;;;;;4992631;28;20031;-56
2023/07/17 05:26:05;;;;;;;3.95;3.65;;;;;;;;;;4989751;28;20065;-55
2023/07/17 05:28:31;;;;;;;4.20;3.88;;;;;;;;;;4979135;28;20034;-56
2023/07/17 05:30:57;;;;;;;4.35;3.97;;;;;;;;;;5011222;28;20448;-56
2023/07/17 05:33:23;;;;;;;5.20;4.28;;;;;;;;;;4977885;28;20062;-55
2023/07/17 05:35:49;;;;;;;3.97;3.67;;;;;;;;;;5010515;28;20022;-56
2023/07/17 05:38:17;;;;;;;5.88;3.90;;;;;;;;;;4978912;28;20093;-55
2023/07/17 05:40:44;;;;;;;6.72;4.68;;;;;;;;;;4977806;28;20033;-56
2023/07/17 05:43:10;;;;;;;5.80;3.58;;;;;;;;;;4978089;28;20034;-56
2023/07/17 05:45:38;;;;;;;5.30;3.70;;;;;;;;;;4978500;28;20037;-56
2023/07/17 05:48:04;;;;;;;4.50;3.58;;;;;;;;;;4977608;28;20429;-56
2023/07/17 05:50:29;;;;;;;3.95;3.65;;;;;;;;;;4993997;28;20025;-55
2023/07/17 05:52:56;;;;;;;5.55;3.95;;;;;;;;;;4976568;28;20409;-56
2023/07/17 05:55:21;;;;;;;5.82;3.67;;;;;;;;;;4993953;28;20031;-56
2023/07/17 05:57:47;;;;;;;3.40;3.10;;;;;;;;;;4995109;28;20023;-55
2023/07/17 06:00:14;;;;;;;4.45;3.22;;;;;;;;;;4995179;28;20039;-56
2023/07/17 06:02:39;;;;;;;8.60;3.33;;;;;;;;;;4995126;28;20370;-55
2023/07/17 06:05:06;;;;;;;4.13;3.33;;;;;;;;;;4995219;28;20030;-56
2023/07/17 06:07:31;;;;;;;3.47;3.17;;;;;;;;;;4995106;28;20031;-56
2023/07/17 06:09:56;;;;;;;4.95;3.08;;;;;;;;;;4995289;28;20041;-56
2023/07/17 06:12:22;;;;;;;4.22;3.80;;;;;;;;;;4995594;28;20046;-55
2023/07/17 06:14:47;;;;;;;3.95;3.53;;;;;;;;;;4979657;28;20029;-56
2023/07/17 06:17:13;;;;;;;5.28;4.28;;;;;;;;;;4996829;28;20023;-56
2023/07/17 06:19:38;;;;;;;5.30;3.50;;;;;;;;;;4997350;28;20045;-56
2023/07/17 06:22:04;;;;;;;3.22;2.90;;;;;;;;;;4996652;28;20030;-56
2023/07/17 06:24:30;;;;;;;5.40;3.20;;;;;;;;;;4979806;28;20045;-56
2023/07/17 06:26:55;;;;;;;3.88;3.20;;;;;;;;;;4996307;28;20042;-56
2023/07/17 06:29:20;;;;;;;3.80;3.42;;;;;;;;;;4996401;28;20540;-56
2023/07/17 06:31:46;;;;;;;4.65;3.80;;;;;;;;;;4996525;28;20030;-55
2023/07/17 06:34:11;;;;;;;4.20;3.45;;;;;;;;;;4996937;28;20532;-55
2023/07/17 06:36:36;;;;;;;3.20;2.95;;;;;;;;;;4996316;28;20023;-56
2023/07/17 06:39:02;;;;;;;3.53;3.20;;;;;;;;;;4996548;28;20069;-56
2023/07/17 06:41:27;;;;;;;3.30;3.00;;;;;;;;;;4996489;28;20027;-55
2023/07/17 06:43:54;;;;;;;4.57;3.13;;;;;;;;;;4978703;28;20102;-55
2023/07/17 06:46:20;;;;;;;3.17;2.90;;;;;;;;;;4996724;28;20043;-56
2023/07/17 06:48:45;;;;;;;3.53;3.22;;;;;;;;;;4978901;28;20053;-56
2023/07/17 06:51:11;;;;;;;4.03;2.90;;;;;;;;;;5013355;23;20134;-55
2023/07/17 06:53:36;;;;;;;3.10;2.90;;;;;;;;;;4996548;28;20062;-56
2023/07/17 06:56:23;;;;;;;2.65;2.45;;;;;;;;;;5047010;23;20522;-56
2023/07/17 06:58:48;;;;;;;3.17;2.95;;;;;;;;;;5020435;23;20065;-60
2023/07/17 07:01:33;;;;;;;2.83;2.63;;;;;;;;;;5041839;23;20401;-61
2023/07/17 07:03:58;;;;;;;3.00;2.80;;;;;;;;;;5041952;22;20135;-91
2023/07/17 07:06:23;;;;;;;4.55;3.17;;;;;;;;;;5001034;28;20070;-90
2023/07/17 07:08:49;;;;;;;2.90;2.65;;;;;;;;;;5000465;28;20030;-90
2023/07/17 07:11:16;;;;;;;3.30;3.10;;;;;;;;;;5005392;28;20010;-90
2023/07/17 07:13:44;;;;;;;3.50;3.20;;;;;;;;;;5038544;28;20083;-90
2023/07/17 07:16:09;;;;;;;3.00;2.80;;;;;;;;;;5033984;28;20422;-89
2023/07/17 07:18:37;;;;;;;2.85;2.65;;;;;;;;;;5000603;28;20025;-89
2023/07/17 07:21:04;;;;;;;;;;;;;;;;;;5034815;28;20034;-90
2023/07/17 07:23:32;;;;;;;2.60;2.40;;;;;;;;;;5000999;28;19944;-90
2023/07/17 07:26:00;;;;;;;3.90;2.40;;;;;;;;;;5020871;28;20056;-90
2023/07/17 07:28:25;;;;;;;5.78;2.40;;;;;;;;;;5033606;28;20030;-91
2023/07/17 07:30:55;;;;;;;3.15;2.70;;;;;;;;;;5000646;28;20091;-91
2023/07/17 07:33:23;;;;;;;3.10;2.90;;;;;;;;;;5033790;28;20094;-90
2023/07/17 07:35:55;;;;;;;2.60;2.40;;;;;;;;;;5034664;28;20387;-90
2023/07/17 07:38:20;;;;;;;3.72;2.65;;;;;;;;;;5033711;28;20050;-92
2023/07/17 07:40:45;;;;;;;3.28;2.55;;;;;;;;;;5000305;28;20028;-90
2023/07/17 07:43:11;;;;;;;3.58;2.60;;;;;;;;;;4999973;28;20116;-90
2023/07/17 07:45:36;;;;;;;2.67;2.50;;;;;;;;;;5016614;28;20026;-91
2023/07/17 07:48:02;;;;;;;2.53;2.38;;;;;;;;;;5033718;28;20041;-92
2023/07/17 07:50:27;;;;;;;2.70;2.60;;;;;;;;;;5000889;28;20475;-91
2023/07/17 07:52:55;;;;;;;3.08;2.88;;;;;;;;;;5000766;28;20029;-91
2023/07/17 07:55:25;;;;;;;2.75;2.55;;;;;;;;;;5033695;28;20024;-90
2023/07/17 07:57:51;;;;;;;2.90;2.70;;;;;;;;;;5033667;28;20068;-91
2023/07/17 08:00:16;;;;;;;2.72;2.40;;;;;;;;;;5033413;28;20025;-91
2023/07/17 08:02:44;;;;;;;3.10;2.80;;;;;;;;;;5033561;28;20056;-91
2023/07/17 08:05:10;;;;;;;3.80;2.90;;;;;;;;;;5033295;28;20123;-91
2023/07/17 08:07:35;;;;;;;3.17;2.85;;;;;;;;;;5033630;28;20543;-91
2023/07/17 08:10:01;;;;;;;3.30;3.00;;;;;;;;;;5033413;28;20414;-91
2023/07/17 08:12:26;;;;;;;3.45;3.13;;;;;;;;;;5033533;28;20590;-91
2023/07/17 08:14:54;;;;;;;5.30;3.28;;;;;;;;;;5033521;28;20037;-92
2023/07/17 08:17:24;;;;;;;2.95;2.75;;;;;;;;;;5049889;28;20029;-91
2023/07/17 08:19:50;;;;;;;4.53;3.00;;;;;;;;;;5000553;28;20053;-91
2023/07/17 08:22:18;;;;;;;3.20;3.00;;;;;;;;;;5049817;28;20422;-90
2023/07/17 08:24:46;;;;;;;4.78;3.13;;;;;;;;;;5016957;28;20028;-91
2023/07/17 08:27:15;;;;;;;3.22;2.90;;;;;;;;;;5000487;28;20382;-91
2023/07/17 08:29:43;;;;;;;3.05;2.92;;;;;;;;;;5033271;28;20029;-91
2023/07/17 08:32:10;;;;;;;2.92;2.72;;;;;;;;;;5033339;28;20040;-90
2023/07/17 08:34:38;;;;;;;3.08;2.88;;;;;;;;;;5016543;28;20028;-90
2023/07/17 08:37:04;;;;;;;3.38;3.08;;;;;;;;;;5032577;28;20029;-92
2023/07/17 08:39:29;;;;;;;3.17;2.88;;;;;;;;;;4999811;28;20075;-91
2023/07/17 08:41:54;;;;;;;3.55;3.35;;;;;;;;;;4999945;28;20392;-90
2023/07/17 08:44:21;;;;;;;3.38;3.10;;;;;;;;;;5032967;28;20025;-92
2023/07/17 08:46:47;;;;;;;4.10;3.33;;;;;;;;;;4999783;28;20108;-92
2023/07/17 08:49:17;;;;;;;4.88;3.17;;;;;;;;;;5000610;28;20033;-91
2023/07/17 08:51:42;;;;;;;5.15;3.25;;;;;;;;;;5032476;28;20052;-92
2023/07/17 08:54:13;;;;;;;3.90;3.13;;;;;;;;;;5000170;28;20472;-91
2023/07/17 08:56:42;;;;;;;3.65;3.35;;;;;;;;;;5035392;28;20124;-91
2023/07/17 08:59:07;;;;;;;3.28;3.08;;;;;;;;;;5036854;28;20025;-91
2023/07/17 09:01:33;;;;;;;4.35;3.22;;;;;;;;;;5004219;28;20103;-90
2023/07/17 09:03:59;;;;;;;3.78;3.47;;;;;;;;;;5036793;28;20122;-91
2023/07/17 09:06:26;;;;;;;3.42;3.13;;;;;;;;;;5003971;28;20029;-92
2023/07/17 09:08:52;;;;;;;3.35;3.15;;;;;;;;;;5003818;28;20110;-92
2023/07/17 09:11:18;;;;;;;3.38;3.08;;;;;;;;;;5036791;28;20108;-92
2023/07/17 09:13:44;;;;;;;3.75;3.28;;;;;;;;;;5003893;28;20116;-92
2023/07/17 09:16:14;;;;;;;2.63;2.42;;;;;;;;;;5053358;28;20026;-91
2023/07/17 09:18:52;;;;;;;3.08;2.75;;;;;;;;;;5038284;28;20041;-92
2023/07/17 09:21:22;;;;;;;2.72;2.50;;;;;;;;;;5036911;28;20025;-91
2023/07/17 09:23:48;;;;;;;3.42;2.90;;;;;;;;;;5036817;28;20112;-93
2023/07/17 09:26:17;;;;;;;2.60;2.40;;;;;;;;;;5036535;28;20053;-92
2023/07/17 09:28:47;;;;;;;3.42;2.88;;;;;;;;;;5036520;28;20055;-91
2023/07/17 09:31:37;;;;;;;3.40;3.08;;;;;;;;;;5036939;28;20396;-91
2023/07/17 09:34:11;;;;;;;3.22;2.92;;;;;;;;;;5004009;28;20022;-92
2023/07/17 09:36:36;;;;;;;3.00;2.80;;;;;;;;;;5003589;28;20497;-91
2023/07/17 09:39:05;;;;;;;3.30;2.90;;;;;;;;;;5053192;28;20017;-91
2023/07/17 09:41:36;;;;;;;4.72;2.80;;;;;;;;;;5036935;28;20033;-91
2023/07/17 09:44:05;;;;;;;3.00;2.90;;;;;;;;;;5036877;28;20112;-92
2023/07/17 09:46:32;;;;;;;3.40;3.10;;;;;;;;;;5035982;28;20036;-91
2023/07/17 09:49:01;;;;;;;3.03;2.83;;;;;;;;;;5036255;28;20034;-91
2023/07/17 09:51:26;;;;;;;3.42;3.20;;;;;;;;;;5036340;28;20040;-91
2023/07/17 09:53:55;;;;;;;3.33;2.92;;;;;;;;;;5003066;28;20084;-92
2023/07/17 09:56:26;;;;;;;3.05;2.85;;;;;;;;;;5036062;28;20036;-92
2023/07/17 09:58:54;;;;;;;3.25;2.72;;;;;;;;;;5002904;28;20034;-91
2023/07/17 10:01:27;;;;;;;3.80;3.10;;;;;;;;;;5036039;28;20124;-92
2023/07/17 10:03:58;;;;;;;3.40;3.20;;;;;;;;;;5036493;28;20054;-92
2023/07/17 10:06:24;;;;;;;3.17;2.78;;;;;;;;;;5035357;28;20029;-92
2023/07/17 10:08:53;;;;;;;3.25;3.05;;;;;;;;;;5002904;28;20030;-91
2023/07/17 10:11:21;;;;;;;2.55;2.45;;;;;;;;;;5002988;28;20460;-92
2023/07/17 10:13:51;;;;;;;2.72;2.53;;;;;;;;;;5003799;28;20030;-91
2023/07/17 10:16:18;;;;;;;3.58;2.70;;;;;;;;;;5002362;28;20087;-92
2023/07/17 10:18:48;;;;;;;3.85;2.92;;;;;;;;;;5052531;28;20025;-93
2023/07/17 10:21:14;;;;;;;2.90;2.70;;;;;;;;;;5035633;28;20075;-92
2023/07/17 10:23:41;;;;;;;2.72;2.33;;;;;;;;;;5035796;28;20067;-93
2023/07/17 10:26:10;;;;;;;2.17;2.08;;;;;;;;;;5036243;28;20021;-92
2023/07/17 10:28:37;;;;;;;2.55;2.35;;;;;;;;;;5035468;28;20124;-92
2023/07/17 10:31:08;;;;;;;3.10;2.90;;;;;;;;;;5035352;28;20017;-93
2023/07/17 10:33:37;;;;;;;2.70;2.47;;;;;;;;;;5035350;28;20087;-92
2023/07/17 10:36:05;;;;;;;2.60;2.50;;;;;;;;;;5002364;28;20014;-92
2023/07/17 10:38:49;;;;;;;2.63;2.42;;;;;;;;;;5036871;28;20037;-92
2023/07/17 10:41:17;;;;;;;4.22;2.75;;;;;;;;;;5035337;28;20037;-91
2023/07/17 10:43:57;;;;;;;3.03;2.70;;;;;;;;;;5020120;28;20026;-93
2023/07/17 10:46:27;;;;;;;3.38;2.95;;;;;;;;;;5035320;28;20030;-92
2023/07/17 10:49:09;;;;;;;2.47;2.33;;;;;;;;;;5018965;28;20033;-93
2023/07/17 10:51:38;;;;;;;2.95;2.75;;;;;;;;;;5034595;28;20040;-93
2023/07/17 10:54:08;;;;;;;4.10;2.70;;;;;;;;;;5035029;28;20456;-93
2023/07/17 10:56:47;;;;;;;;;;;;;;;;;;;;;
2023/07/17 10:59:26;;;;;;;3.08;2.85;;;;;;;;;;5051908;28;20029;-93
2023/07/17 11:02:02;;;;;;;3.15;2.95;;;;;;;;;;5002557;28;20052;-93
2023/07/17 11:04:35;;;;;;;5.25;3.30;;;;;;;;;;5034547;28;20124;-93
2023/07/17 11:07:10;;;;;;;9.02;2.97;;;;;;;;;;5034579;28;20035;-92
2023/07/17 11:09:46;;;;;;;5.40;3.30;;;;;;;;;;5015563;28;20044;-93
2023/07/17 11:12:23;;;;;;;2.97;2.80;;;;;;;;;;5001476;28;20033;-92
2023/07/17 11:14:51;;;;;;;6.75;3.20;;;;;;;;;;5034679;28;20029;-92
2023/07/17 11:17:20;;;;;;;2.97;2.78;;;;;;;;;;5035274;28;20072;-92
2023/07/17 11:19:58;;;;;;;2.67;2.47;;;;;;;;;;5033624;28;20025;-94
2023/07/17 11:22:33;;;;;;;3.15;2.90;;;;;;;;;;5020425;28;20034;-93
2023/07/17 11:25:05;;;;;;;2.88;2.78;;;;;;;;;;5035249;28;20048;-93
2023/07/17 11:27:54;;;;;;;2.97;2.78;;;;;;;;;;5022271;28;20095;-94
2023/07/17 11:30:26;;;;;;;3.53;2.78;;;;;;;;;;5035143;28;20040;-92
2023/07/17 11:32:57;;;;;;;2.88;2.67;;;;;;;;;;5034026;28;20478;-92
2023/07/17 11:35:43;;;;;;;3.05;2.75;;;;;;;;;;5034368;28;20029;-92
2023/07/17 11:38:20;;;;;;;3.75;2.78;;;;;;;;;;5034116;28;20033;-92
2023/07/17 11:40:54;;;;;;;3.15;2.70;;;;;;;;;;5034098;28;20033;-94
2023/07/17 11:43:38;;;;;;;2.80;2.42;;;;;;;;;;5033904;28;20037;-93
2023/07/17 11:46:11;;;;;;;2.42;2.33;;;;;;;;;;5034148;28;20021;-90
2023/07/17 11:48:39;;;;;;;2.85;2.75;;;;;;;;;;5034284;28;20065;-94
2023/07/17 11:51:05;;;;;;;3.97;2.88;;;;;;;;;;5034314;28;20387;-92
2023/07/17 11:53:32;;;;;;;2.97;2.78;;;;;;;;;;5000594;28;20044;-92
2023/07/17 11:56:03;;;;;;;5.88;2.88;;;;;;;;;;5017701;28;20036;-91
2023/07/17 11:58:30;;;;;;;5.03;3.25;;;;;;;;;;5001061;28;20029;-91
2023/07/17 12:00:56;;;;;;;3.15;2.85;;;;;;;;;;5000633;28;20021;-91
2023/07/17 12:03:27;;;;;;;3.13;2.92;;;;;;;;;;5033404;28;20049;-91
2023/07/17 12:06:00;;;;;;;2.95;2.65;;;;;;;;;;5033692;28;20032;-91
2023/07/17 12:08:28;;;;;;;3.38;3.17;;;;;;;;;;5034099;28;20038;-92
2023/07/17 12:11:01;;;;;;;3.30;3.00;;;;;;;;;;5001853;28;20022;-92
2023/07/17 12:13:35;;;;;;;3.40;3.03;;;;;;;;;;5050228;28;20092;-91
2023/07/17 12:16:06;;;;;;;3.33;3.03;;;;;;;;;;5031800;28;20080;-91
2023/07/17 12:18:31;;;;;;;3.17;2.90;;;;;;;;;;5033260;28;20129;-90
2023/07/17 12:21:01;;;;;;;3.20;3.00;;;;;;;;;;5000881;28;20112;-92
2023/07/17 12:23:42;;;;;;;3.55;3.17;;;;;;;;;;5017537;28;20357;-91
2023/07/17 12:26:10;;;;;;;3.90;3.22;;;;;;;;;;5033414;28;20064;-92
2023/07/17 12:28:41;;;;;;;3.20;2.90;;;;;;;;;;5000594;28;20372;-92
2023/07/17 12:31:36;;;;;;;2.95;2.63;;;;;;;;;;5033678;28;20044;-91
2023/07/17 12:34:42;;;;;;;3.10;2.80;;;;;;;;;;5018587;28;20069;-92
2023/07/17 12:37:26;;;;;;;3.15;2.70;;;;;;;;;;5000641;28;20525;-91
2023/07/17 12:40:44;;;;;;;2.92;2.65;;;;;;;;;;5019941;28;20048;-91
2023/07/17 12:43:14;;;;;;;2.75;2.55;;;;;;;;;;5016729;28;20136;-92
2023/07/17 12:45:57;;;;;;;2.88;2.60;;;;;;;;;;5018593;28;20025;-92
2023/07/17 12:48:48;;;;;;;2.50;2.33;;;;;;;;;;5033489;28;20033;-90
2023/07/17 12:51:42;;;;;;;2.78;2.50;;;;;;;;;;5017318;28;20025;-91
2023/07/17 12:54:10;;;;;;;2.83;2.55;;;;;;;;;;5033086;28;20025;-92
2023/07/17 12:57:01;;;;;;;2.42;2.22;;;;;;;;;;5019710;28;20060;-92
2023/07/17 12:59:37;;;;;;;;;;;;;;;;;;;;;
2023/07/17 13:02:03;;;;;;;2.83;2.38;;;;;;;;;;5049691;28;20029;-91
2023/07/17 13:04:36;;;;;;;3.58;2.28;;;;;;;;;;4999458;28;20049;-92
2023/07/17 13:07:13;;;;;;;2.45;2.25;;;;;;;;;;5033463;28;20037;-93
2023/07/17 13:09:39;;;;;;;2.20;2.00;;;;;;;;;;5033014;28;20037;-91
2023/07/17 13:12:07;;;;;;;2.67;2.47;;;;;;;;;;4999238;28;20053;-92
2023/07/17 13:14:36;;;;;;;2.72;2.60;;;;;;;;;;5032735;28;20120;-91
2023/07/17 13:17:07;;;;;;;3.28;2.42;;;;;;;;;;5032205;28;20113;-91
2023/07/17 13:19:49;;;;;;;2.85;2.65;;;;;;;;;;5000106;28;20041;-92
2023/07/17 13:22:22;;;;;;;3.22;2.17;;;;;;;;;;5028020;28;20030;-92
2023/07/17 13:24:52;;;;;;;3.10;2.05;;;;;;;;;;5024401;28;20044;-93
2023/07/17 13:27:20;;;;;;;;;;;;;;;;;;5041300;28;20069;-93
2023/07/17 13:29:45;;;;;;;2.65;2.30;;;;;;;;;;5023116;28;19917;-92
2023/07/17 13:32:13;;;;;;;7.85;6.28;;;;;;;;;;5022792;28;20169;-93
2023/07/17 13:34:41;;;;;;;3.08;2.78;;;;;;;;;;5020921;28;20037;-93
2023/07/17 13:37:07;;;;;;;6.80;2.75;;;;;;;;;;5021898;28;20010;-92
2023/07/17 13:39:32;;;;;;;3.13;2.88;;;;;;;;;;5021809;28;20027;-93
2023/07/17 13:42:00;;;;;;;3.03;2.83;;;;;;;;;;5023444;28;20016;-92
2023/07/17 13:44:39;;;;;;;4.00;3.03;;;;;;;;;;5010313;28;20037;-92
2023/07/17 13:47:13;;;;;;;3.40;3.13;;;;;;;;;;5016292;28;20100;-92
2023/07/17 14:00:37;;;;;;;;;;;;;;;;;;;;;
2023/07/17 14:18:47;;;;;;;4.72;3.95;;;;;;;;;;4880905;29;20080;-91
2023/07/17 14:30:05;;;;;;;;;;;;;;;;;;;;;
2023/07/17 14:36:33;;;;;;;4.80;3.72;;;;;;;;;;4931133;29;20118;-91
2023/07/17 14:39:12;;;;;;;3.15;2.95;;;;;;;;;;4924287;29;20046;-93
2023/07/17 14:41:46;;;;;;;3.83;3.53;;;;;;;;;;4940283;29;20068;-92
2023/07/17 14:44:35;;;;;;;3.90;3.55;;;;;;;;;;4941562;29;20041;-93
2023/07/17 14:47:13;;;;;;;;;;;;;;;;;;;;;
2023/07/17 14:49:42;;;;;;;4.22;3.83;;;;;;;;;;4958971;28;20030;-91
2023/07/17 14:55:13;;;;;;;3.88;3.58;;;;;;;;;;5025009;28;20034;-93
2023/07/17 14:57:45;;;;;;;3.45;3.17;;;;;;;;;;4999082;28;20036;-94
2023/07/17 15:00:27;;;;;;;4.07;3.78;;;;;;;;;;5015557;28;20038;-92
2023/07/17 15:03:03;;;;;;;4.25;3.80;;;;;;;;;;4982409;28;20045;-92
2023/07/17 15:05:51;;;;;;;;;;;;;;;;;;;;;
2023/07/17 15:08:25;;;;;;;3.55;3.35;;;;;;;;;;5015525;28;20038;-92
2023/07/17 15:13:44;;;;;;;4.32;3.05;;;;;;;;;;5031389;28;20049;-95
2023/07/17 15:16:09;;;;;;;3.47;3.20;;;;;;;;;;5019363;28;20116;-93
2023/07/17 15:18:42;;;;;;;4.32;3.13;;;;;;;;;;5051221;28;20037;-93
2023/07/17 15:21:12;;;;;;;3.03;2.83;;;;;;;;;;5034656;28;20116;-93
2023/07/17 15:23:43;;;;;;;3.95;3.65;;;;;;;;;;5034530;28;20029;-93
2023/07/17 15:26:12;;;;;;;4.10;3.25;;;;;;;;;;5034516;28;20064;-94
2023/07/17 15:28:40;;;;;;;3.97;3.15;;;;;;;;;;5034183;28;20033;-95
2023/07/17 15:31:11;;;;;;;3.33;3.13;;;;;;;;;;5034755;28;20156;-94
2023/07/17 15:33:39;;;;;;;4.43;3.25;;;;;;;;;;5034538;28;20029;-93
2023/07/17 15:36:08;;;;;;;3.80;3.50;;;;;;;;;;5034422;28;20013;-94
2023/07/17 15:38:46;;;;;;;3.92;3.72;;;;;;;;;;5049330;28;20044;-94
2023/07/17 15:41:29;;;;;;;3.25;3.05;;;;;;;;;;5048693;28;20049;-94
2023/07/17 15:44:03;;;;;;;4.10;3.80;;;;;;;;;;5034268;28;20034;-94